Latest Weather Observations for Inverell RS

IDN60801

Issued at 2:05 pm EST Wednesday 24 September 2014 (issued every 30 minutes, with the page automatically refreshed every 10 minutes)

About weather observations | Map of weather stations | Latest weather observations for NSW | Other Formats
Station Details ID: 056018 Name: INVERELL RESEARCH CENTRE Lat: -29.78 Lon: 151.08 Height: 664.0 m
Data from the previous 72 hours. | See also: Recent months at Inverell RS
Date/Time
EST
Temp
°C
App
Temp
°C
Dew
Point
Rel
Hum
%
Delta-T
°C
Wind Press
QNH
hPa
Press
MSL
hPa
Rain
since 9 am
mm
Dir
 
Spd
km/h
Gust
km/h
Spd
kts
Gust
kts
24/02:00pm 21.1 17.8 4.3 33 8.4 NNW 11 19 6 10 1020.2 - 0.0
24/01:30pm 22.1 17.2 2.3 27 9.6 N 17 26 9 14 1020.9 - 0.0
24/01:00pm 21.9 16.9 1.3 25 9.8 N 17 30 9 16 1021.5 - 0.0
24/12:30pm 21.1 16.4 3.4 31 8.7 N 17 30 9 16 1022.2 - 0.0
24/12:00pm 21.3 16.4 4.3 32 8.5 N 19 32 10 17 1022.6 1021.8 0.0
24/11:30am 20.6 16.6 4.7 35 8.0 N 15 28 8 15 1023.1 - 0.0
24/11:00am 19.8 15.4 4.8 37 7.5 N 17 30 9 16 1023.6 - 0.0
24/10:30am 19.5 15.1 4.9 38 7.3 N 17 26 9 14 1024.3 - 0.0
24/10:00am 18.6 14.2 4.7 40 6.9 N 17 30 9 16 1024.6 - 0.0
24/09:30am 18.0 14.1 5.4 43 6.3 N 15 20 8 11 1025.0 - 0.0
24/09:00am 16.8 14.2 6.3 50 5.3 NNE 9 17 5 9 1025.4 1024.7 0.0
24/08:30am 15.1 13.0 6.5 56 4.3 ENE 7 15 4 8 1025.7 - 0.0
24/08:00am 14.1 12.0 6.5 60 3.8 ESE 7 11 4 6 1025.9 - 0.0
24/07:30am 12.4 10.2 6.0 65 3.1 ESE 7 11 4 6 1025.9 - 0.0
24/07:00am 12.0 10.0 6.3 68 2.8 ESE 6 9 3 5 1025.9 - 0.0
24/06:30am 9.9 7.8 5.9 76 1.9 SE 6 7 3 4 1025.8 - 0.0
24/06:00am 8.8 6.4 5.1 77 1.7 SSE 7 7 4 4 1025.5 1024.7 0.0
24/05:30am 8.6 6.2 5.1 79 1.6 SSE 7 9 4 5 1025.2 - 0.0
24/05:00am 8.2 5.8 5.4 82 1.3 SSE 7 9 4 5 1024.9 - 0.0
24/04:30am 8.1 5.8 5.5 84 1.2 SE 7 9 4 5 1024.7 - 0.0
24/04:00am 8.0 5.6 5.4 84 1.2 SE 7 11 4 6 1024.8 - 0.0
24/03:30am 7.9 5.6 5.5 85 1.1 ESE 7 9 4 5 1025.0 - 0.0
24/03:00am 8.4 6.0 5.4 81 1.4 ESE 7 9 4 5 1025.5 1024.7 0.0
24/02:30am 8.8 6.5 5.6 80 1.5 ENE 7 11 4 6 1025.8 - 0.0
24/02:00am 9.5 6.8 5.5 76 1.9 NNE 9 11 5 6 1026.1 - 0.0
24/01:30am 9.7 7.0 5.4 74 2.0 N 9 11 5 6 1026.2 - 0.0
24/01:00am 10.5 7.8 5.4 70 2.4 NNE 9 13 5 7 1026.4 - 0.0
24/12:30am 10.8 8.5 5.5 70 2.5 NNE 7 11 4 6 1026.7 - 0.0
24/12:00am 11.1 8.7 5.2 67 2.8 N 7 11 4 6 1027.1 1026.3 0.0
 
Date/Time
EST
Temp
°C
App
Temp
°C
Dew
Point
Rel
Hum
%
Delta-T
°C
Wind Press
QNH
hPa
Press
MSL
hPa
Rain
since 9 am
mm
Dir
 
Spd
km/h
Gust
km/h
Spd
kts
Gust
kts
23/11:30pm 11.5 8.8 5.4 66 2.9 NNE 9 15 5 8 1027.1 - 0.0
23/11:00pm 12.0 8.8 5.0 62 3.3 N 11 13 6 7 1027.0 - 0.0
23/10:30pm 12.2 9.4 5.0 61 3.4 N 9 13 5 7 1026.8 - 0.0
23/10:00pm 12.7 9.5 5.2 60 3.6 N 11 15 6 8 1027.0 - 0.0
23/09:30pm 13.6 10.3 4.8 55 4.2 N 11 17 6 9 1026.8 - 0.0
23/09:00pm 13.5 10.6 4.7 55 4.2 N 9 11 5 6 1026.6 1025.9 0.0
23/08:30pm 14.3 11.4 4.4 51 4.7 N 9 11 5 6 1026.5 - 0.0
23/08:00pm 15.2 12.3 4.4 48 5.2 NNE 9 17 5 9 1026.4 - 0.0
23/07:30pm 16.1 12.3 4.0 44 5.8 ENE 13 20 7 11 1026.0 - 0.0
23/07:00pm 16.6 13.1 3.3 41 6.3 ENE 11 17 6 9 1025.6 - 0.0
23/06:30pm 16.3 12.8 1.0 35 6.9 E 9 19 5 10 1025.1 - 0.0
23/06:00pm 18.1 14.7 1.8 33 7.6 N 9 13 5 7 1024.8 1024.1 0.0
23/05:30pm 20.1 16.3 -0.8 24 9.4 NNE 9 15 5 8 1024.5 - 0.0
23/05:00pm 21.0 17.1 -1.7 21 10.1 NNE 9 13 5 7 1024.3 - 0.0
23/04:30pm 21.7 16.8 -3.1 19 10.8 ENE 13 17 7 9 1024.3 - 0.0
23/04:00pm 22.1 18.3 -0.6 22 10.4 NNE 9 19 5 10 1024.2 - 0.0
23/03:30pm 22.5 18.2 -1.7 20 10.9 N 11 24 6 13 1024.3 - 0.0
23/03:00pm 22.6 19.2 -0.3 22 10.6 NW 7 15 4 8 1024.5 1023.7 0.0
23/02:30pm 22.5 18.5 0.2 22 10.5 NNE 11 19 6 10 1024.7 - 0.0
23/02:00pm 22.5 18.4 -0.5 21 10.6 NE 11 22 6 12 1025.1 - 0.0
23/01:30pm 22.1 17.6 -0.2 22 10.3 N 13 26 7 14 1025.7 - 0.0
23/01:00pm 21.4 17.5 1.3 26 9.5 N 11 17 6 9 1026.1 - 0.0
23/12:30pm 21.2 16.9 1.3 26 9.4 N 13 19 7 10 1026.8 - 0.0
23/12:00pm 20.1 16.1 2.6 31 8.4 NE 13 22 7 12 1027.4 1026.7 0.0
23/11:30am 20.2 16.0 1.8 29 8.7 NE 13 20 7 11 1027.9 - 0.0
23/11:00am 19.3 14.6 1.2 30 8.4 ENE 15 20 8 11 1028.3 - 0.0
23/10:30am 19.1 15.5 3.1 34 7.7 ENE 11 19 6 10 1028.7 - 0.0
23/10:00am 17.5 13.3 3.8 40 6.6 E 15 26 8 14 1029.1 - 0.0
23/09:30am 16.4 13.2 5.2 47 5.5 E 11 19 6 10 1029.2 - 0.0
23/09:00am 15.1 11.0 4.5 49 5.1 E 15 22 8 12 1029.2 1028.5 0.0
23/08:30am 14.0 10.5 5.3 55 4.2 ESE 13 19 7 10 1029.1 - 0.0
23/08:00am 12.9 9.8 5.7 61 3.5 E 11 15 6 8 1029.1 - 0.0
23/07:30am 11.6 8.1 5.5 66 2.9 E 13 19 7 10 1029.2 - 0.0
23/07:00am 10.1 7.5 5.9 75 2.0 ESE 9 11 5 6 1028.9 - 0.0
23/06:30am 9.1 6.9 6.4 83 1.3 SE 7 11 4 6 1028.8 - 0.0
23/06:00am 7.6 6.6 5.7 88 0.9 CALM 0 0 0 0 1028.6 1027.8 0.0
23/05:30am 8.2 7.2 5.6 84 1.2 CALM 0 0 0 0 1028.4 - 0.0
23/05:00am 9.1 7.7 5.7 79 1.6 NE 2 6 1 3 1028.3 - 0.0
23/04:30am 9.0 6.7 5.8 80 1.5 SE 7 9 4 5 1028.0 - 0.0
23/04:00am 9.3 7.0 5.9 79 1.6 SE 7 13 4 7 1028.0 - 0.0
23/03:30am 9.3 7.0 5.9 79 1.6 SE 7 11 4 6 1027.9 - 0.0
23/03:00am 9.4 7.2 6.3 81 1.5 E 7 13 4 7 1027.9 1027.2 0.0
23/02:30am 9.9 6.6 6.6 80 1.6 ESE 13 17 7 9 1027.8 - 0.0
23/02:00am 10.0 7.1 6.7 80 1.6 E 11 15 6 8 1028.3 - 0.0
23/01:30am 9.6 7.5 6.5 81 1.5 ESE 7 11 4 6 1028.6 - 0.0
23/01:00am 10.7 8.6 6.8 77 1.9 ENE 7 9 4 5 1028.9 - 0.0
23/12:30am 10.9 8.5 7.0 77 1.9 E 9 11 5 6 1029.0 - 0.0
23/12:00am 11.0 9.1 7.4 78 1.8 ENE 7 9 4 5 1029.2 1028.5 0.0
 
Date/Time
EST
Temp
°C
App
Temp
°C
Dew
Point
Rel
Hum
%
Delta-T
°C
Wind Press
QNH
hPa
Press
MSL
hPa
Rain
since 9 am
mm
Dir
 
Spd
km/h
Gust
km/h
Spd
kts
Gust
kts
22/11:30pm 11.7 9.3 7.0 73 2.3 NNE 9 15 5 8 1029.4 - 0.0
22/11:00pm 11.8 9.4 6.9 72 2.4 NE 9 11 5 6 1029.3 - 0.0
22/10:30pm 12.3 10.3 7.3 71 2.5 NNE 7 13 4 7 1029.4 - 0.0
22/10:00pm 12.9 10.5 7.1 68 2.9 NE 9 17 5 9 1029.4 - 0.0
22/09:30pm 12.9 10.2 7.5 69 2.7 NE 11 15 6 8 1029.1 - 0.0
22/09:00pm 13.9 10.3 6.9 62 3.5 ENE 15 22 8 12 1028.9 1028.2 0.0
22/08:30pm 14.3 11.1 6.7 60 3.8 E 13 20 7 11 1028.7 - 0.0
22/08:00pm 14.9 11.0 5.5 53 4.6 E 15 22 8 12 1028.4 - 0.0
22/07:30pm 15.3 11.2 4.5 48 5.2 E 15 24 8 13 1028.1 - 0.0
22/07:00pm 15.8 12.2 2.7 41 6.1 E 11 15 6 8 1027.8 - 0.0
22/06:30pm 15.9 12.8 3.4 43 5.9 ENE 9 11 5 6 1027.4 - 0.0
22/06:00pm 16.7 13.1 2.9 39 6.5 ENE 11 15 6 8 1027.1 1026.3 0.0
22/05:30pm 17.4 13.3 2.2 36 7.1 ENE 13 17 7 9 1026.7 - 0.0
22/05:00pm 17.9 13.9 2.7 36 7.2 ENE 13 20 7 11 1026.7 - 0.0
22/04:30pm 18.4 13.6 2.6 35 7.5 E 17 24 9 13 1026.4 - 0.0
22/04:00pm 18.6 13.7 2.3 33 7.7 ENE 17 26 9 14 1026.4 - 0.0
22/03:30pm 18.6 14.3 3.2 36 7.4 ENE 15 19 8 10 1026.3 - 0.0
22/03:00pm 18.7 14.2 2.4 33 7.7 ENE 15 22 8 12 1026.4 1025.8 0.0
22/02:30pm 19.0 14.6 2.6 33 7.8 ENE 15 24 8 13 1026.6 - 0.0
22/02:00pm 19.6 15.3 3.3 34 7.9 ENE 15 22 8 12 1027.0 - 0.0
22/01:30pm 19.1 13.9 2.5 33 7.9 ENE 19 28 10 15 1027.3 - 0.0
22/01:00pm 18.9 14.1 2.4 33 7.9 ENE 17 28 9 15 1027.5 - 0.0
22/12:30pm 19.0 14.3 3.2 35 7.6 E 17 32 9 17 1027.8 - 0.0
22/12:00pm 18.5 13.9 3.9 38 7.1 ENE 17 30 9 16 1028.2 1027.5 0.0
22/11:30am 17.8 12.6 3.7 39 6.8 ENE 20 30 11 16 1028.7 - 0.0
22/11:00am 18.1 12.2 4.1 39 6.9 E 24 37 13 20 1029.1 - 0.0
22/10:30am 17.7 13.3 4.7 42 6.4 E 17 33 9 18 1029.4 - 0.0
22/10:00am 16.8 11.8 4.4 43 6.1 ENE 20 30 11 16 1029.7 - 0.0
22/09:30am 15.9 11.0 5.0 48 5.4 ENE 20 32 11 17 1029.7 - 0.0
22/09:00am 15.5 10.8 5.0 49 5.1 E 19 30 10 16 1029.6 1028.9 0.0
22/08:30am 14.0 10.4 5.1 55 4.3 ENE 13 20 7 11 1029.5 - 0.0
22/08:00am 12.9 10.0 4.4 56 4.0 E 9 17 5 9 1029.7 - 0.0
22/07:30am 11.7 9.1 4.4 61 3.4 E 7 11 4 6 1029.5 - 0.0
22/07:00am 10.5 7.6 4.4 66 2.8 E 9 13 5 7 1029.2 - 0.0
22/06:30am 9.0 6.1 4.4 73 2.1 ESE 9 13 5 7 1028.7 - 0.0
22/06:00am 8.9 6.1 3.3 68 2.5 E 7 11 4 6 1028.2 - 0.0
22/05:30am 9.4 5.8 3.1 65 2.8 ENE 11 15 6 8 1027.8 - 0.0
22/05:00am 9.5 6.4 3.5 66 2.7 E 9 19 5 10 1027.3 - 0.0
22/04:30am 9.7 6.2 3.7 66 2.7 E 11 15 6 8 1026.8 - 0.0
22/04:00am 10.5 6.7 3.7 63 3.1 E 13 20 7 11 1026.7 - 0.0
22/03:30am 10.3 6.9 4.2 66 2.8 ENE 11 15 6 8 1026.7 - 0.0
22/03:00am 9.9 7.7 5.2 72 2.2 E 6 7 3 4 1027.0 - 0.0
22/02:30am 10.6 8.1 4.6 66 2.8 ENE 7 9 4 5 1027.2 - 0.0
22/02:00am 11.2 7.5 4.3 62 3.2 E 13 19 7 10 1027.5 - 0.0
22/01:30am 11.4 7.2 4.0 60 3.4 E 15 22 8 12 1028.2 - 0.0
22/01:00am 11.4 7.6 3.8 59 3.5 E 13 19 7 10 1028.3 - 0.0
22/12:30am 11.3 7.5 3.9 60 3.4 ENE 13 15 7 8 1028.6 - 0.0
22/12:00am 11.7 7.0 3.4 56 3.8 E 17 28 9 15 1028.6 - 0.0
 
Date/Time
EST
Temp
°C
App
Temp
°C
Dew
Point
Rel
Hum
%
Delta-T
°C
Wind Press
QNH
hPa
Press
MSL
hPa
Rain
since 9 am
mm
Dir
 
Spd
km/h
Gust
km/h
Spd
kts
Gust
kts
21/11:30pm 11.9 7.1 4.7 61 3.4 E 19 28 10 15 1028.2 - 0.0
21/11:00pm 12.2 7.9 5.3 62 3.3 E 17 24 9 13 1028.4 - 0.0
21/10:30pm 12.3 9.3 5.9 65 3.1 ENE 11 17 6 9 1028.3 - 0.0
21/10:00pm 12.7 8.2 6.1 64 3.2 ENE 19 26 10 14 1028.2 - 0.0
21/09:30pm 12.9 9.2 6.2 64 3.3 ENE 15 24 8 13 1028.0 - 0.0
21/09:00pm 13.1 9.4 6.4 64 3.3 NE 15 22 8 12 1028.1 - 0.0
21/08:30pm 13.5 10.4 5.4 58 3.9 ENE 11 15 6 8 1027.8 - 0.0
21/08:00pm 14.0 10.0 4.8 54 4.4 E 15 20 8 11 1027.6 - 0.0
21/07:30pm 14.5 9.7 4.5 51 4.8 E 19 26 10 14 1027.3 - 0.0
21/07:00pm 15.2 9.7 4.1 47 5.3 E 22 32 12 17 1026.6 - 0.0
21/06:30pm 15.8 12.0 -0.5 33 7.1 ENE 9 13 5 7 1025.8 - 0.0
21/06:00pm 16.5 11.9 -1.4 29 7.7 ENE 13 17 7 9 1025.5 - 0.0
21/05:30pm 17.1 12.5 -1.4 28 8.0 E 13 20 7 11 1024.9 - 0.0
21/05:00pm 17.7 12.6 -2.2 25 8.5 NE 15 28 8 15 1024.7 - 0.0
21/04:30pm 18.3 13.1 -3.0 23 9.0 NE 15 22 8 12 1024.4 - 0.0
21/04:00pm 19.0 13.0 -2.7 23 9.3 ENE 19 30 10 16 1024.3 - 0.0
21/03:30pm 19.4 14.4 -4.0 20 9.8 E 13 22 7 12 1024.2 - 0.0
21/03:00pm 19.6 14.4 -6.4 16 10.4 E 13 28 7 15 1024.1 - 0.0
21/02:30pm 20.7 14.8 -5.6 16 10.8 ENE 17 26 9 14 1024.2 - 0.0

Other Formats:

Comma delimited format used in spreadsheet applications
http://www.bom.gov.au/fwo/IDN60801/IDN60801.94541.axf

JavaScript Object Notation format (JSON) in row-major order
http://www.bom.gov.au/fwo/IDN60801/IDN60801.94541.json